Darstellungsparameter: Aktuell verwendete Einstellungen:
Skalierung der Graphiken ... ?
xyx+y,   Skalierungsfaktor:      Skalierung: Modus: x, Faktor: 1
Darstellungszeitraum ... ?
Vom - - bis: - -   Zeitraum: 28.03.2021 - 28.03.2021
Min/Max/Avg-Anzeige ... ?
Zeige MMA aktuell
Zeige MMA Monat
Zeige MMA alles
Zeige --A aktuell
Zeige --A Monat
Zeige --A alles
Keine MMA-Anzeige
MMA:
Keine MMA-Graphiken
MMA-Basis: 28.03.2021 - 28.03.2021
Quicknavigation für Darstellung... ?
Tage:      1T, 2T, 3T, 5T -1T -2T -3T -5T +1T +2T +3T +5T
Wochen: 1W, 2W, 3W -1W -2W -3W +1W +2W +3W
Monate: 1M, 3M, 6M -1M -3M -6M +1M +3M +6M
Jahre:    1J, 3J, 5J, 10J -1J -3J -5J -10J +1J +3J +5J +10J
Nutze für die Darstellung ... ?
Originaldaten oder Mittelwerte auf ...
Stundenbasis Tagesbasis Wochenbasis
Monatsbasis Jahresbasis      Datenbasis: Original-Daten
Darstellen als:
Statistik (Auto) Statistik J:M      Darstellung:
Zur Graphik,    zurück zur Übersicht aller Sensoren.
 
Tabellarische Datenbersicht: ?
 
Sensor: Nr:Datum:Temp:Feuchte:Taupunkt:
Aussen-T/F 1 28-03-2021 00:00:00 4.1 C 91 % 2.77 C
2 28-03-2021 00:05:00 4.1 C 90 % 2.61 C
3 28-03-2021 00:10:00 4 C 90 % 2.51 C
4 28-03-2021 00:15:00 3.9 C 90 % 2.41 C
5 28-03-2021 00:20:00 3.9 C 90 % 2.41 C
6 28-03-2021 00:25:00 3.9 C 91 % 2.57 C
7 28-03-2021 00:30:00 3.9 C 91 % 2.57 C
8 28-03-2021 00:35:00 4 C 91 % 2.67 C
9 28-03-2021 00:40:00 4 C 91 % 2.67 C
10 28-03-2021 00:45:00 3.9 C 91 % 2.57 C
11 28-03-2021 00:50:00 3.9 C 91 % 2.57 C
12 28-03-2021 00:55:00 3.8 C 91 % 2.47 C
13 28-03-2021 01:00:00 3.8 C 91 % 2.47 C
14 28-03-2021 01:05:00 3.8 C 91 % 2.47 C
15 28-03-2021 01:10:00 3.8 C 91 % 2.47 C
16 28-03-2021 01:15:00 3.9 C 92 % 2.72 C
17 28-03-2021 01:20:00 3.9 C 92 % 2.72 C
18 28-03-2021 01:25:00 4.1 C 92 % 2.92 C
19 28-03-2021 01:30:00 4.2 C 92 % 3.02 C
20 28-03-2021 01:35:00 4.3 C 92 % 3.12 C
21 28-03-2021 01:40:00 4.4 C 92 % 3.22 C
22 28-03-2021 01:45:00 4.5 C 92 % 3.32 C
23 28-03-2021 01:50:00 4.6 C 92 % 3.42 C
24 28-03-2021 01:55:00 4.6 C 91 % 3.26 C
25 28-03-2021 02:00:00 4.7 C 91 % 3.36 C
Sensor: Nr:Datum:Temp:Feuchte:Taupunkt:
Aussen-T/F 26 28-03-2021 02:05:00 4.7 C 91 % 3.36 C
27 28-03-2021 02:10:00 4.8 C 90 % 3.3 C
28 28-03-2021 02:15:00 4.8 C 90 % 3.3 C
29 28-03-2021 02:20:00 4.9 C 90 % 3.4 C
30 28-03-2021 02:25:00 4.9 C 90 % 3.4 C
31 28-03-2021 02:30:00 4.9 C 90 % 3.4 C
32 28-03-2021 02:35:00 4.9 C 90 % 3.4 C
33 28-03-2021 02:40:00 5 C 90 % 3.5 C
34 28-03-2021 02:45:00 5.1 C 90 % 3.6 C
35 28-03-2021 02:50:00 5.1 C 90 % 3.6 C
36 28-03-2021 02:55:00 5.1 C 90 % 3.6 C
37 28-03-2021 04:00:00 5.1 C 90 % 3.6 C
38 28-03-2021 04:05:00 5.1 C 90 % 3.6 C
39 28-03-2021 04:10:00 5.1 C 90 % 3.6 C
40 28-03-2021 04:15:00 5.1 C 90 % 3.6 C
41 28-03-2021 04:20:00 5.1 C 90 % 3.6 C
42 28-03-2021 04:25:00 5.1 C 90 % 3.6 C
43 28-03-2021 04:30:00 5.2 C 90 % 3.7 C
44 28-03-2021 04:35:00 5.2 C 90 % 3.7 C
45 28-03-2021 04:40:00 5.2 C 90 % 3.7 C
46 28-03-2021 04:45:00 5.2 C 90 % 3.7 C
47 28-03-2021 04:50:00 5.2 C 90 % 3.7 C
48 28-03-2021 04:55:00 5.3 C 90 % 3.8 C
49 28-03-2021 05:00:00 5.2 C 90 % 3.7 C
50 28-03-2021 05:05:00 5.2 C 89 % 3.54 C
Sensor: Nr:Datum:Temp:Feuchte:Taupunkt:
Aussen-T/F 51 28-03-2021 05:10:00 5.1 C 89 % 3.44 C
52 28-03-2021 05:15:00 5.1 C 89 % 3.44 C
53 28-03-2021 05:20:00 5 C 90 % 3.5 C
54 28-03-2021 05:25:00 4.9 C 90 % 3.4 C
55 28-03-2021 05:30:00 4.9 C 90 % 3.4 C
56 28-03-2021 05:35:00 4.9 C 90 % 3.4 C
57 28-03-2021 05:40:00 4.8 C 90 % 3.3 C
58 28-03-2021 05:45:00 4.8 C 90 % 3.3 C
59 28-03-2021 05:50:00 4.8 C 90 % 3.3 C
60 28-03-2021 05:55:00 4.7 C 90 % 3.2 C
61 28-03-2021 06:00:00 4.7 C 90 % 3.2 C
62 28-03-2021 06:05:00 4.6 C 90 % 3.1 C
63 28-03-2021 06:10:00 4.6 C 90 % 3.1 C
64 28-03-2021 06:15:00 4.4 C 90 % 2.91 C
65 28-03-2021 06:20:00 4.4 C 90 % 2.91 C
66 28-03-2021 06:25:00 4.4 C 90 % 2.91 C
67 28-03-2021 06:30:00 4.4 C 91 % 3.06 C
68 28-03-2021 06:35:00 4.4 C 91 % 3.06 C
69 28-03-2021 06:40:00 4.4 C 91 % 3.06 C
70 28-03-2021 06:45:00 4.4 C 91 % 3.06 C
71 28-03-2021 06:50:00 4.4 C 91 % 3.06 C
72 28-03-2021 06:55:00 4.4 C 91 % 3.06 C
73 28-03-2021 07:00:00 4.5 C 91 % 3.16 C
74 28-03-2021 07:05:00 4.5 C 91 % 3.16 C
75 28-03-2021 07:10:00 4.6 C 91 % 3.26 C
Sensor: Nr:Datum:Temp:Feuchte:Taupunkt:
Aussen-T/F 76 28-03-2021 07:15:00 4.7 C 91 % 3.36 C
77 28-03-2021 07:20:00 4.7 C 91 % 3.36 C
78 28-03-2021 07:25:00 4.9 C 91 % 3.56 C
79 28-03-2021 07:30:00 5 C 91 % 3.66 C
80 28-03-2021 07:35:00 5.2 C 90 % 3.7 C
81 28-03-2021 07:40:00 5.3 C 90 % 3.8 C
82 28-03-2021 07:45:00 5.5 C 89 % 3.84 C
83 28-03-2021 07:50:00 5.6 C 88 % 3.77 C
84 28-03-2021 07:55:00 5.7 C 88 % 3.87 C
85 28-03-2021 08:00:00 5.9 C 88 % 4.07 C
86 28-03-2021 08:05:00 5.9 C 87 % 3.91 C
87 28-03-2021 08:10:00 5.9 C 87 % 3.91 C
88 28-03-2021 08:15:00 5.9 C 87 % 3.91 C
89 28-03-2021 08:20:00 5.9 C 87 % 3.91 C
90 28-03-2021 08:25:00 6 C 87 % 4 C
91 28-03-2021 08:30:00 6.1 C 87 % 4.1 C
92 28-03-2021 08:35:00 6.1 C 87 % 4.1 C
93 28-03-2021 08:40:00 6.2 C 87 % 4.2 C
94 28-03-2021 08:45:00 6.3 C 87 % 4.3 C
95 28-03-2021 08:50:00 6.3 C 87 % 4.3 C
96 28-03-2021 08:55:00 6.3 C 87 % 4.3 C
97 28-03-2021 09:00:00 6.3 C 87 % 4.3 C
98 28-03-2021 09:05:00 6.3 C 87 % 4.3 C
99 28-03-2021 09:10:00 6.4 C 87 % 4.4 C
100 28-03-2021 09:15:00 6.6 C 87 % 4.6 C
Sensor: Nr:Datum:Temp:Feuchte:Taupunkt:
Aussen-T/F 101 28-03-2021 09:20:00 6.7 C 87 % 4.69 C
102 28-03-2021 09:25:00 6.8 C 87 % 4.79 C
103 28-03-2021 09:30:00 6.9 C 87 % 4.89 C
104 28-03-2021 09:35:00 7.1 C 86 % 4.92 C
105 28-03-2021 09:40:00 7.2 C 86 % 5.02 C
106 28-03-2021 09:45:00 7.3 C 86 % 5.12 C
107 28-03-2021 09:50:00 7.4 C 86 % 5.22 C
108 28-03-2021 09:55:00 7.6 C 85 % 5.24 C
109 28-03-2021 10:00:00 7.6 C 84 % 5.07 C
110 28-03-2021 10:05:00 7.7 C 83 % 5 C
111 28-03-2021 10:10:00 7.7 C 83 % 5 C
112 28-03-2021 10:15:00 7.7 C 83 % 5 C
113 28-03-2021 10:20:00 7.7 C 83 % 5 C
114 28-03-2021 10:25:00 7.7 C 83 % 5 C
115 28-03-2021 10:30:00 7.9 C 82 % 5.02 C
116 28-03-2021 10:35:00 8.3 C 82 % 5.41 C
117 28-03-2021 10:40:00 8.7 C 81 % 5.63 C
118 28-03-2021 10:45:00 9.1 C 80 % 5.84 C
119 28-03-2021 10:50:00 9.4 C 78 % 5.76 C
120 28-03-2021 10:55:00 9.7 C 78 % 6.06 C
121 28-03-2021 11:00:00 9.8 C 77 % 5.97 C
122 28-03-2021 11:05:00 10 C 77 % 6.16 C
123 28-03-2021 11:10:00 10.2 C 75 % 5.97 C
124 28-03-2021 11:15:00 10.3 C 75 % 6.07 C
125 28-03-2021 11:20:00 10.6 C 74 % 6.17 C
Sensor: Nr:Datum:Temp:Feuchte:Taupunkt:
Aussen-T/F 126 28-03-2021 11:25:00 10.7 C 73 % 6.07 C
127 28-03-2021 11:30:00 10.8 C 73 % 6.16 C
128 28-03-2021 11:35:00 10.8 C 72 % 5.96 C
129 28-03-2021 11:40:00 11 C 73 % 6.35 C
130 28-03-2021 11:45:00 11.2 C 70 % 5.94 C
131 28-03-2021 11:50:00 11.3 C 70 % 6.03 C
132 28-03-2021 11:55:00 11.3 C 68 % 5.62 C
133 28-03-2021 12:00:00 11.4 C 66 % 5.28 C
134 28-03-2021 12:05:00 11.5 C 66 % 5.38 C
135 28-03-2021 12:10:00 11.6 C 65 % 5.25 C
136 28-03-2021 12:15:00 11.7 C 64 % 5.13 C
137 28-03-2021 12:20:00 11.8 C 63 % 5 C
138 28-03-2021 12:25:00 12 C 62 % 4.96 C
139 28-03-2021 12:30:00 12.2 C 61 % 4.91 C
140 28-03-2021 12:35:00 12.6 C 61 % 5.29 C
141 28-03-2021 12:40:00 12.6 C 60 % 5.05 C
142 28-03-2021 12:45:00 12.5 C 60 % 4.96 C
143 28-03-2021 12:50:00 12.4 C 61 % 5.1 C
144 28-03-2021 12:55:00 12.6 C 61 % 5.29 C
145 28-03-2021 13:00:00 12.7 C 59 % 4.9 C
146 28-03-2021 13:05:00 12.8 C 57 % 4.5 C
147 28-03-2021 13:10:00 12.8 C 56 % 4.25 C
148 28-03-2021 13:15:00 13.1 C 55 % 4.28 C
149 28-03-2021 13:20:00 13.2 C 55 % 4.37 C
150 28-03-2021 13:25:00 13.3 C 55 % 4.46 C
Sensor: Nr:Datum:Temp:Feuchte:Taupunkt:
Aussen-T/F 151 28-03-2021 13:30:00 13.6 C 54 % 4.48 C
152 28-03-2021 13:35:00 13.7 C 53 % 4.31 C
153 28-03-2021 13:40:00 13.8 C 52 % 4.13 C
154 28-03-2021 13:45:00 13.7 C 53 % 4.31 C
155 28-03-2021 13:50:00 13.7 C 55 % 4.83 C
156 28-03-2021 13:55:00 13.7 C 54 % 4.57 C
157 28-03-2021 14:00:00 13.8 C 53 % 4.4 C
158 28-03-2021 14:05:00 13.8 C 54 % 4.66 C
159 28-03-2021 14:10:00 13.9 C 53 % 4.49 C
160 28-03-2021 14:15:00 14.1 C 54 % 4.94 C
161 28-03-2021 14:20:00 14.2 C 52 % 4.5 C
162 28-03-2021 14:25:00 14.3 C 52 % 4.59 C
163 28-03-2021 14:30:00 14.5 C 52 % 4.77 C
164 28-03-2021 14:35:00 14.6 C 52 % 4.87 C
165 28-03-2021 14:40:00 14.6 C 53 % 5.14 C
166 28-03-2021 14:45:00 14.6 C 51 % 4.59 C
167 28-03-2021 14:50:00 14.6 C 52 % 4.87 C
168 28-03-2021 14:55:00 14.7 C 51 % 4.68 C
169 28-03-2021 15:00:00 14.8 C 51 % 4.77 C
170 28-03-2021 15:05:00 14.7 C 51 % 4.68 C
171 28-03-2021 15:10:00 14.7 C 51 % 4.68 C
172 28-03-2021 15:15:00 14.8 C 51 % 4.77 C
173 28-03-2021 15:20:00 14.8 C 51 % 4.77 C
174 28-03-2021 15:25:00 14.9 C 51 % 4.86 C
175 28-03-2021 15:30:00 14.9 C 51 % 4.86 C
Sensor: Nr:Datum:Temp:Feuchte:Taupunkt:
Aussen-T/F 176 28-03-2021 15:35:00 15.1 C 51 % 5.05 C
177 28-03-2021 15:40:00 15.2 C 50 % 4.86 C
178 28-03-2021 15:45:00 15.1 C 49 % 4.48 C
179 28-03-2021 15:50:00 14.9 C 51 % 4.86 C
180 28-03-2021 15:55:00 14.9 C 50 % 4.58 C
181 28-03-2021 16:00:00 15.1 C 51 % 5.05 C
182 28-03-2021 16:05:00 15.2 C 50 % 4.86 C
183 28-03-2021 16:10:00 15.3 C 50 % 4.95 C
184 28-03-2021 16:15:00 15.4 C 51 % 5.33 C
185 28-03-2021 16:20:00 15.4 C 50 % 5.04 C
186 28-03-2021 16:25:00 15.5 C 49 % 4.84 C
187 28-03-2021 16:30:00 15.6 C 48 % 4.64 C
188 28-03-2021 16:35:00 15.6 C 48 % 4.64 C
189 28-03-2021 16:40:00 15.6 C 48 % 4.64 C
190 28-03-2021 16:45:00 15.7 C 48 % 4.73 C
191 28-03-2021 16:50:00 15.7 C 48 % 4.73 C
192 28-03-2021 16:55:00 15.6 C 49 % 4.94 C
193 28-03-2021 17:00:00 15.7 C 49 % 5.03 C
194 28-03-2021 17:05:00 15.7 C 49 % 5.03 C
195 28-03-2021 17:10:00 15.7 C 48 % 4.73 C
196 28-03-2021 17:15:00 15.6 C 49 % 4.94 C
197 28-03-2021 17:20:00 15.5 C 49 % 4.84 C
198 28-03-2021 17:25:00 15.4 C 49 % 4.75 C
199 28-03-2021 17:30:00 15.3 C 49 % 4.66 C
200 28-03-2021 17:35:00 15.3 C 50 % 4.95 C
Sensor: Nr:Datum:Temp:Feuchte:Taupunkt:
Aussen-T/F 201 28-03-2021 17:40:00 15.3 C 50 % 4.95 C
202 28-03-2021 17:45:00 15.4 C 49 % 4.75 C
203 28-03-2021 17:50:00 15.4 C 49 % 4.75 C
204 28-03-2021 17:55:00 15.5 C 48 % 4.55 C
205 28-03-2021 18:00:00 15.6 C 48 % 4.64 C
206 28-03-2021 18:05:00 15.6 C 49 % 4.94 C
207 28-03-2021 18:10:00 15.7 C 49 % 5.03 C
208 28-03-2021 18:15:00 15.9 C 48 % 4.92 C
209 28-03-2021 18:20:00 15.9 C 47 % 4.61 C
210 28-03-2021 18:25:00 16 C 47 % 4.71 C
211 28-03-2021 18:30:00 16.1 C 48 % 5.1 C
212 28-03-2021 18:35:00 16.2 C 47 % 4.89 C
213 28-03-2021 18:40:00 15.8 C 46 % 4.22 C
214 28-03-2021 18:45:00 15.4 C 48 % 4.46 C
215 28-03-2021 18:50:00 15.2 C 48 % 4.28 C
216 28-03-2021 18:55:00 14.9 C 49 % 4.29 C
217 28-03-2021 19:00:00 14.8 C 50 % 4.49 C
218 28-03-2021 19:05:00 14.6 C 51 % 4.59 C
219 28-03-2021 19:10:00 14.5 C 51 % 4.5 C
220 28-03-2021 19:15:00 14.3 C 53 % 4.86 C
221 28-03-2021 19:20:00 14.2 C 53 % 4.77 C
222 28-03-2021 19:25:00 14.1 C 51 % 4.13 C
223 28-03-2021 19:30:00 13.9 C 53 % 4.49 C
224 28-03-2021 19:35:00 13.8 C 54 % 4.66 C
225 28-03-2021 19:40:00 13.6 C 56 % 5 C
Sensor: Nr:Datum:Temp:Feuchte:Taupunkt:
Aussen-T/F 226 28-03-2021 19:45:00 13.4 C 55 % 4.55 C
227 28-03-2021 19:50:00 13.2 C 56 % 4.63 C
228 28-03-2021 19:55:00 12.9 C 56 % 4.35 C
229 28-03-2021 20:00:00 12.7 C 57 % 4.41 C
230 28-03-2021 20:05:00 12.7 C 57 % 4.41 C
231 28-03-2021 20:10:00 12.6 C 56 % 4.07 C
232 28-03-2021 20:15:00 12.5 C 57 % 4.22 C
233 28-03-2021 20:20:00 12.4 C 58 % 4.38 C
234 28-03-2021 20:25:00 12.2 C 57 % 3.94 C
235 28-03-2021 20:30:00 12.1 C 57 % 3.85 C
236 28-03-2021 20:35:00 12.1 C 57 % 3.85 C
237 28-03-2021 20:40:00 12.1 C 58 % 4.1 C
238 28-03-2021 20:45:00 11.9 C 59 % 4.15 C
239 28-03-2021 20:50:00 11.8 C 61 % 4.53 C
240 28-03-2021 20:55:00 11.6 C 62 % 4.58 C
241 28-03-2021 21:00:00 11.3 C 64 % 4.75 C
242 28-03-2021 21:05:00 11.1 C 64 % 4.56 C
243 28-03-2021 21:10:00 10.8 C 65 % 4.49 C
244 28-03-2021 21:15:00 10.6 C 66 % 4.52 C
245 28-03-2021 21:20:00 10.4 C 67 % 4.55 C
246 28-03-2021 21:25:00 10.3 C 68 % 4.66 C
247 28-03-2021 21:30:00 10.2 C 68 % 4.57 C
248 28-03-2021 21:35:00 10.1 C 69 % 4.68 C
249 28-03-2021 21:40:00 9.8 C 68 % 4.18 C
250 28-03-2021 21:45:00 9.7 C 70 % 4.5 C
Sensor: Nr:Datum:Temp:Feuchte:Taupunkt:
Aussen-T/F 251 28-03-2021 21:50:00 9.6 C 70 % 4.41 C
252 28-03-2021 21:55:00 9.4 C 71 % 4.42 C
253 28-03-2021 22:00:00 9.3 C 71 % 4.32 C
254 28-03-2021 22:05:00 9.2 C 72 % 4.42 C
255 28-03-2021 22:10:00 9.1 C 73 % 4.52 C
256 28-03-2021 22:15:00 9.1 C 73 % 4.52 C
257 28-03-2021 22:20:00 9 C 73 % 4.43 C
258 28-03-2021 22:25:00 9 C 74 % 4.62 C
259 28-03-2021 22:30:00 8.9 C 74 % 4.53 C
260 28-03-2021 22:35:00 8.9 C 75 % 4.72 C
261 28-03-2021 22:40:00 8.8 C 75 % 4.62 C
262 28-03-2021 22:45:00 8.8 C 75 % 4.62 C
263 28-03-2021 22:50:00 8.8 C 75 % 4.62 C
264 28-03-2021 22:55:00 8.8 C 76 % 4.81 C
265 28-03-2021 23:00:00 8.8 C 76 % 4.81 C
266 28-03-2021 23:05:00 8.7 C 76 % 4.71 C
267 28-03-2021 23:10:00 8.7 C 76 % 4.71 C
268 28-03-2021 23:15:00 8.7 C 76 % 4.71 C
269 28-03-2021 23:20:00 8.6 C 76 % 4.62 C
270 28-03-2021 23:25:00 8.6 C 75 % 4.43 C
271 28-03-2021 23:30:00 8.4 C 75 % 4.23 C
272 28-03-2021 23:35:00 8.4 C 76 % 4.42 C
273 28-03-2021 23:40:00 8.3 C 77 % 4.51 C
274 28-03-2021 23:45:00 8.3 C 77 % 4.51 C
275 28-03-2021 23:50:00 8.2 C 77 % 4.42 C
Sensor: Nr:Datum:Temp:Feuchte:Taupunkt:
Aussen-T/F 276 28-03-2021 23:55:00 8.1 C 78 % 4.5 C

Legende:
   Min
   Max


Maximal/Minimal-Werte vom 28.03.2021 - 28.03.2021

Sensor Min Max Avg
Temp
(Aussen-T/F)
3.8 °C
28-03-2021  00:55:00
16.2 °C
28-03-2021  18:35:00
9.55 °C
Feuchte
(Aussen-T/F)
46 %
28-03-2021  18:40:00
92 %
28-03-2021  01:15:00
72.02 %
Taupunkt
(Aussen-T/F)
2.41 C
28-03-2021  00:15:00
6.35 C
28-03-2021  11:40:00
4.27 C

Die Daten stammen von einer Davis Vantage Pro 2 Wetter-Station und werden unter Linux mit der Software wview2wettercgi und aufbereitet. Alle Angaben erfolgen ohne Gewähr für ihre Vollständigkeit oder Richtigkeit.
Kontakt: Rainer Krienke krienke@uni-koblenz.de . Meine Webseiten an der Uni Koblenz oder privat.
Version: $Revision: 0.78 $